Siloam Springs, Arkansas
Current Conditions -  °F | °C
As of 8:15 AM on Sunday 25 Jan 2015 (Local Time) from KSLG Reporting Station
Overcast Overcast  
Wind Chill: 41°   Ceiling: 6000
Heat Index: 46°   Visibility: 10mi
Dew Point: 34°   Wind: 12mph
Humidity: 62%   Direction: 290°WNW
Pressure: 29.8"   Gusts: NA
Location:  36.19°N, 94.54°W
Report Text: KSLG 251415Z AUTO 29010KT 10SM OVC060 08/01 A2980 RMK AO1
Loading
Personal Weather Stations






























Interactive Weather Map New forecast layout! Learn more

10-Day Weather Forecast

Advertisements
Track Severe Weather on mobile